Terminal Aerodrome Forecast
Issued by NWS

Home | Current Version | Previous Version | Text Only | Print | Product List | Glossary On
Versions: 1 2 3 4 5 6 7 8 9 10 11 12
000
FTUS45 KABQ 231100
TAFFMN
TAF
KFMN 231121Z 2312/2412 08006KT P6SM SKC
     FM232100 26007KT P6SM FEW250
     FM240200 VRB03KT P6SM FEW250
     FM240700 07005KT P6SM SKC=

USA.gov is the U.S. government's official web portal to all federal, state and local government web resources and services.